createdAt,value
2019-06-20T00:01:28.489Z,38.95
2019-06-20T00:03:58.700Z,34.53
2019-06-20T00:06:29.001Z,27.25
2019-06-20T00:08:59.416Z,22.48
2019-06-20T00:11:29.684Z,29.32
2019-06-20T00:14:00.021Z,41.85
2019-06-20T00:16:30.308Z,42.98
2019-06-20T00:19:00.632Z,45.35
2019-06-20T00:21:31.907Z,38.57
2019-06-20T00:24:02.188Z,32.75
2019-06-20T00:26:32.740Z,32.28
2019-06-20T00:29:03.192Z,28.47
2019-06-20T00:31:33.626Z,22.07
2019-06-20T00:34:03.878Z,12.45
2019-06-20T00:36:34.246Z,11.78
2019-06-20T00:39:07.929Z,14.13
2019-06-20T00:41:38.360Z,15.30
2019-06-20T00:44:08.548Z,12.10
2019-06-20T00:46:40.159Z,9.68
2019-06-20T00:49:10.383Z,8.93
2019-06-20T00:51:47.557Z,6.30
2019-06-20T00:54:17.900Z,6.15
2019-06-20T00:56:48.098Z,8.83
2019-06-20T00:59:21.846Z,12.20
2019-06-20T01:01:52.194Z,14.35
2019-06-20T01:04:25.168Z,17.67
2019-06-20T01:06:55.461Z,21.33
2019-06-20T01:09:25.779Z,19.60
2019-06-20T01:11:57.359Z,20.02
2019-06-20T01:14:28.603Z,22.30
2019-06-20T01:16:58.865Z,19.12
2019-06-20T01:19:29.047Z,18.70
2019-06-20T01:21:59.495Z,19.30
2019-06-20T01:24:30.375Z,13.05
2019-06-20T01:27:00.695Z,16.42
2019-06-20T01:29:30.878Z,19.67
2019-06-20T01:32:01.180Z,20.08
2019-06-20T01:34:32.472Z,24.00
2019-06-20T01:37:02.778Z,24.87
2019-06-20T01:39:33.333Z,23.98
2019-06-20T01:42:03.632Z,20.48
2019-06-20T01:44:33.926Z,16.50
2019-06-20T01:47:18.614Z,14.10
2019-06-20T01:49:49.005Z,18.92
2019-06-20T01:52:19.192Z,22.75
2019-06-20T01:54:49.518Z,26.68
2019-06-20T01:57:21.799Z,32.03
2019-06-20T02:02:21.261Z,32.53
2019-06-20T02:04:52.631Z,38.38
2019-06-20T02:07:22.856Z,40.13
2019-06-20T02:09:55.139Z,36.60
2019-06-20T02:14:55.018Z,19.80
2019-06-20T02:17:26.702Z,19.48
2019-06-20T02:19:58.302Z,28.50
2019-06-20T02:22:28.529Z,21.68
2019-06-20T02:24:58.752Z,19.77
2019-06-20T02:27:29.120Z,21.07
2019-06-20T02:29:59.423Z,14.95
2019-06-20T02:32:33.920Z,15.20
2019-06-20T02:35:06.117Z,11.55
2019-06-20T02:37:36.480Z,12.65
2019-06-20T02:40:07.278Z,9.95
2019-06-20T02:42:37.490Z,14.18
2019-06-20T02:45:09.019Z,14.45
2019-06-20T02:47:39.211Z,16.73
2019-06-20T02:50:09.953Z,22.35
2019-06-20T02:52:42.497Z,23.35
2019-06-20T02:55:12.901Z,20.32
2019-06-20T02:57:44.260Z,17.98
2019-06-20T03:00:15.127Z,21.63
2019-06-20T03:02:45.465Z,25.60
2019-06-20T03:05:16.055Z,25.68
2019-06-20T03:07:46.336Z,27.52
2019-06-20T03:10:17.842Z,29.50
2019-06-20T03:12:48.241Z,27.50
2019-06-20T03:15:18.485Z,30.52
2019-06-20T03:17:48.749Z,31.45
2019-06-20T03:20:19.082Z,30.85
2019-06-20T03:22:50.311Z,30.65
2019-06-20T03:25:22.304Z,34.23
2019-06-20T03:27:54.715Z,32.13
2019-06-20T03:30:25.612Z,33.88
2019-06-20T03:32:57.870Z,33.98
2019-06-20T03:37:57.421Z,30.80
2019-06-20T03:40:27.636Z,29.12
2019-06-20T03:42:58.905Z,28.73
2019-06-20T03:45:29.151Z,29.40
2019-06-20T03:47:59.350Z,27.20
2019-06-20T03:50:29.649Z,30.45
2019-06-20T03:53:03.550Z,29.50
2019-06-20T03:55:36.076Z,29.72
2019-06-20T03:58:06.390Z,29.10
2019-06-20T04:00:38.311Z,28.80
2019-06-20T04:03:08.678Z,32.53
2019-06-20T04:05:42.043Z,31.23
2019-06-20T04:08:12.409Z,29.20
2019-06-20T04:10:42.648Z,30.15
2019-06-20T04:13:12.883Z,30.08
2019-06-20T04:15:43.105Z,34.78
2019-06-20T04:18:15.654Z,40.73
2019-06-20T04:23:14.744Z,51.92
2019-06-20T04:25:45.007Z,50.48
2019-06-20T04:28:15.425Z,49.60
2019-06-20T04:30:45.629Z,49.53
2019-06-20T04:33:16.214Z,47.85
2019-06-20T04:35:46.484Z,44.85
2019-06-20T04:38:16.744Z,40.98
2019-06-20T04:40:48.564Z,40.63
2019-06-20T04:43:18.785Z,37.20
2019-06-20T04:45:50.921Z,41.33
2019-06-20T04:48:23.113Z,41.70
2019-06-20T04:50:53.328Z,38.25
2019-06-20T04:53:23.636Z,36.90
2019-06-20T04:55:53.918Z,36.48
2019-06-20T04:58:28.249Z,36.48
2019-06-20T05:00:58.508Z,37.58
2019-06-20T05:03:28.741Z,39.13
2019-06-20T05:05:59.022Z,45.88
2019-06-20T05:08:29.351Z,44.98
2019-06-20T05:10:59.615Z,43.00
2019-06-20T05:13:29.918Z,45.65
2019-06-20T05:16:00.107Z,44.75
2019-06-20T05:18:30.336Z,45.88
2019-06-20T05:21:00.532Z,58.60
2019-06-20T05:23:30.836Z,66.85
2019-06-20T05:26:01.200Z,59.23
2019-06-20T05:28:31.508Z,48.65
2019-06-20T05:31:01.732Z,35.05
2019-06-20T05:33:32.053Z,35.58
2019-06-20T05:36:02.246Z,27.95
2019-06-20T05:38:32.489Z,28.73
2019-06-20T05:41:02.720Z,37.70
2019-06-20T05:43:33.589Z,39.35
2019-06-20T05:46:09.619Z,36.30
2019-06-20T05:48:35.593Z,34.08
2019-06-20T05:51:06.290Z,28.83
2019-06-20T05:53:36.613Z,24.23
2019-06-20T05:56:08.723Z,22.58
2019-06-20T05:58:39.025Z,22.13
2019-06-20T06:01:09.428Z,20.90
2019-06-20T06:03:39.701Z,22.32
2019-06-20T06:06:11.096Z,20.20
2019-06-20T06:08:42.391Z,17.87
2019-06-20T06:11:12.724Z,17.10
2019-06-20T06:13:43.015Z,18.57
2019-06-20T06:16:25.612Z,19.15
2019-06-20T06:18:45.219Z,17.07
2019-06-20T06:21:15.494Z,15.65
2019-06-20T06:23:46.784Z,14.47
2019-06-20T06:26:17.103Z,11.83
2019-06-20T06:28:47.296Z,8.60
2019-06-20T06:31:17.504Z,7.62
2019-06-20T06:33:48.749Z,8.38
2019-06-20T06:36:19.034Z,9.65
2019-06-20T06:38:50.240Z,9.48
2019-06-20T06:41:20.440Z,9.95
2019-06-20T06:43:51.707Z,8.83
2019-06-20T06:46:21.913Z,6.20
2019-06-20T06:48:53.373Z,6.15
2019-06-20T06:51:23.664Z,6.17
2019-06-20T06:53:53.888Z,7.92
2019-06-20T06:56:25.227Z,16.45
2019-06-20T06:58:55.552Z,21.00
2019-06-20T07:01:26.836Z,15.72
2019-06-20T07:03:57.059Z,13.03
2019-06-20T07:06:31.682Z,10.50
2019-06-20T07:09:01.897Z,9.08
2019-06-20T07:11:33.495Z,7.70
2019-06-20T07:14:03.802Z,7.65
2019-06-20T07:16:34.012Z,7.97
2019-06-20T07:19:04.228Z,8.38
2019-06-20T07:21:35.479Z,9.38
2019-06-20T07:24:05.664Z,7.50
2019-06-20T07:26:35.962Z,7.83
2019-06-20T07:29:06.186Z,9.28
2019-06-20T07:31:36.510Z,8.58
2019-06-20T07:34:06.691Z,13.78
2019-06-20T07:36:37.918Z,19.35
2019-06-20T07:41:40.218Z,24.23
2019-06-20T07:44:10.506Z,16.50
2019-06-20T07:46:40.798Z,12.70
2019-06-20T07:49:10.982Z,12.20
2019-06-20T07:51:41.188Z,11.25
2019-06-20T07:54:11.814Z,12.98
2019-06-20T07:56:42.048Z,11.33
2019-06-20T07:59:12.343Z,11.28
2019-06-20T08:01:42.664Z,16.90
2019-06-20T08:04:12.850Z,11.95
2019-06-20T08:06:43.160Z,6.95
2019-06-20T08:09:14.430Z,6.83
2019-06-20T08:11:44.643Z,7.95
2019-06-20T08:14:14.904Z,9.80
2019-06-20T08:16:45.122Z,9.83
2019-06-20T08:19:15.418Z,9.98
2019-06-20T08:21:45.651Z,10.68
2019-06-20T08:24:15.885Z,11.10
2019-06-20T08:26:46.276Z,7.80
2019-06-20T08:29:21.179Z,8.18
2019-06-20T08:31:48.511Z,6.85
2019-06-20T08:34:18.791Z,7.70
2019-06-20T08:36:48.974Z,7.50
2019-06-20T08:39:19.441Z,7.45
2019-06-20T08:41:49.824Z,8.38
2019-06-20T08:44:20.400Z,8.23
2019-06-20T08:46:51.436Z,9.05
2019-06-20T08:49:21.802Z,8.43
2019-06-20T08:51:52.561Z,8.60
2019-06-20T08:54:23.490Z,9.40
2019-06-20T08:56:54.529Z,7.35
2019-06-20T09:01:58.030Z,7.78
2019-06-20T09:04:27.113Z,8.55
2019-06-20T09:06:58.803Z,11.38
2019-06-20T09:12:00.290Z,9.23
2019-06-20T09:14:32.041Z,9.10
2019-06-20T09:17:03.445Z,9.75
2019-06-20T09:19:33.689Z,8.15
2019-06-20T09:22:05.007Z,6.33
2019-06-20T09:24:35.412Z,8.10
2019-06-20T09:27:05.719Z,8.00
2019-06-20T09:29:41.613Z,8.15
2019-06-20T09:32:08.872Z,9.58
2019-06-20T09:34:40.076Z,11.88
2019-06-20T09:37:10.312Z,15.67
2019-06-20T09:39:40.552Z,8.25
2019-06-20T09:42:11.523Z,10.23
2019-06-20T09:44:42.244Z,7.50
2019-06-20T09:47:13.430Z,10.28
2019-06-20T09:49:44.020Z,6.28
2019-06-20T09:52:14.241Z,7.50
2019-06-20T09:54:44.568Z,5.90
2019-06-20T09:57:14.789Z,6.62
2019-06-20T09:59:59.216Z,6.28
2019-06-20T10:02:16.837Z,6.28
2019-06-20T10:04:47.884Z,6.62
2019-06-20T10:07:18.847Z,5.67
2019-06-20T10:09:49.922Z,5.92
2019-06-20T10:12:20.292Z,5.17
2019-06-20T10:14:51.585Z,7.28
2019-06-20T10:17:21.924Z,6.78
2019-06-20T10:19:54.091Z,5.78
2019-06-20T10:22:24.407Z,5.55
2019-06-20T10:24:55.997Z,6.22
2019-06-20T10:27:26.191Z,6.35
2019-06-20T10:30:04.946Z,6.17
2019-06-20T10:32:28.240Z,5.65
2019-06-20T10:34:58.450Z,6.80
2019-06-20T10:37:29.673Z,6.92
2019-06-20T10:39:59.948Z,7.17
2019-06-20T10:42:30.255Z,6.17
2019-06-20T10:45:00.586Z,6.08
2019-06-20T10:47:35.065Z,6.20
2019-06-20T10:50:02.672Z,5.33
2019-06-20T10:52:33.031Z,9.83
2019-06-20T10:55:04.733Z,7.78
2019-06-20T10:57:34.983Z,7.67
2019-06-20T11:00:11.026Z,6.65
2019-06-20T11:02:42.284Z,4.92
2019-06-20T11:05:13.867Z,5.22
2019-06-20T11:07:43.867Z,5.70
2019-06-20T11:10:14.838Z,5.28
2019-06-20T11:12:50.216Z,5.30
2019-06-20T11:17:46.841Z,5.45
2019-06-20T11:20:19.908Z,5.62
2019-06-20T11:22:49.716Z,5.75
2019-06-20T11:25:19.771Z,5.65
2019-06-20T11:27:49.822Z,5.28
2019-06-20T11:30:21.312Z,5.33
2019-06-20T11:32:53.402Z,5.12
2019-06-20T11:35:23.656Z,5.10
2019-06-20T11:37:55.043Z,6.60
2019-06-20T11:40:25.619Z,6.45
2019-06-20T11:42:58.055Z,5.75
2019-06-20T11:45:28.628Z,5.40
2019-06-20T11:48:00.775Z,6.15
2019-06-20T11:50:31.025Z,5.70
2019-06-20T11:53:01.336Z,5.72
2019-06-20T11:55:31.608Z,5.95
2019-06-20T11:58:01.830Z,5.95
2019-06-20T12:00:32.120Z,6.03
2019-06-20T12:03:03.380Z,6.47
2019-06-20T12:05:33.602Z,6.33
2019-06-20T12:08:03.980Z,5.90
2019-06-20T12:10:34.276Z,6.12
2019-06-20T12:13:05.532Z,5.90
2019-06-20T12:15:35.701Z,8.03
2019-06-20T12:18:05.921Z,6.97
2019-06-20T12:20:36.115Z,7.58
2019-06-20T12:23:06.417Z,8.08
2019-06-20T12:25:39.094Z,8.43
2019-06-20T12:30:38.446Z,7.80
2019-06-20T12:35:41.335Z,8.10
2019-06-20T12:40:42.415Z,6.30
2019-06-20T12:45:42.878Z,6.28
2019-06-20T12:48:13.083Z,7.37
2019-06-20T12:50:43.373Z,7.28
2019-06-20T12:53:13.923Z,5.55
2019-06-20T12:55:45.623Z,6.22
2019-06-20T12:58:17.017Z,5.80
2019-06-20T13:00:47.336Z,7.25
2019-06-20T13:03:17.679Z,12.95
2019-06-20T13:05:49.148Z,8.63
2019-06-20T13:08:20.617Z,12.73
2019-06-20T13:10:50.836Z,11.00
2019-06-20T13:13:21.096Z,7.55
2019-06-20T13:15:51.324Z,8.53
2019-06-20T13:18:22.769Z,9.00
2019-06-20T13:20:53.006Z,7.85
2019-06-20T13:23:23.263Z,5.75
2019-06-20T13:25:55.282Z,6.15
2019-06-20T13:30:55.332Z,6.03
2019-06-20T13:33:25.622Z,6.65
2019-06-20T13:35:57.126Z,6.20
2019-06-20T13:38:27.426Z,5.22
2019-06-20T13:40:57.744Z,7.97
2019-06-20T13:43:30.090Z,8.58
2019-06-20T13:46:00.310Z,6.35
2019-06-20T13:48:34.324Z,6.70
2019-06-20T13:51:04.634Z,8.95
2019-06-20T13:53:35.271Z,9.23
2019-06-20T13:56:05.565Z,8.88
2019-06-20T13:58:36.067Z,8.00
2019-06-20T14:01:06.359Z,6.10
2019-06-20T14:03:36.825Z,5.90
2019-06-20T14:06:07.225Z,5.70
2019-06-20T14:08:37.821Z,5.05
2019-06-20T14:11:08.141Z,6.85
2019-06-20T14:13:38.562Z,6.58
2019-06-20T14:16:08.842Z,6.45
2019-06-20T14:18:39.071Z,5.50
2019-06-20T14:21:10.341Z,5.33
2019-06-20T14:23:41.019Z,5.97
2019-06-20T14:26:12.623Z,5.80
2019-06-20T14:28:44.274Z,5.00
2019-06-20T14:33:46.126Z,4.80
2019-06-20T14:36:17.432Z,6.10
2019-06-20T14:38:47.766Z,10.00
2019-06-20T14:41:18.078Z,7.08
2019-06-20T14:43:49.463Z,7.20
2019-06-20T14:46:20.363Z,7.50
2019-06-20T14:48:51.097Z,6.85
2019-06-20T14:51:21.345Z,6.80
2019-06-20T14:53:52.705Z,6.97
2019-06-20T14:56:23.406Z,6.80
2019-06-20T14:58:53.842Z,5.67
2019-06-20T15:01:25.589Z,5.30
2019-06-20T15:06:26.243Z,4.47
2019-06-20T15:09:03.253Z,5.70
2019-06-20T15:11:28.326Z,4.25
2019-06-20T15:13:58.606Z,5.08
2019-06-20T15:16:28.793Z,5.35
2019-06-20T15:18:59.124Z,5.65
2019-06-20T15:21:29.450Z,6.78
2019-06-20T15:24:00.618Z,10.43
2019-06-20T15:26:30.886Z,6.70
2019-06-20T15:29:01.176Z,6.75
2019-06-20T15:31:31.456Z,6.72
2019-06-20T15:34:01.738Z,7.45
2019-06-20T15:36:31.966Z,7.80
2019-06-20T15:39:02.469Z,6.20
2019-06-20T15:44:03.871Z,14.83
2019-06-20T15:46:34.199Z,11.18
2019-06-20T15:49:15.666Z,9.40
2019-06-20T15:51:36.257Z,9.50
2019-06-20T15:54:06.632Z,8.63
2019-06-20T15:56:36.813Z,8.90
2019-06-20T15:59:07.960Z,7.62
2019-06-20T16:01:38.183Z,7.07
2019-06-20T16:04:08.407Z,6.67
2019-06-20T16:06:39.691Z,6.87
2019-06-20T16:09:09.939Z,7.53
2019-06-20T16:11:41.204Z,6.92
2019-06-20T16:14:11.424Z,7.03
2019-06-20T16:16:59.749Z,7.72
2019-06-20T16:19:30.101Z,6.95
2019-06-20T16:22:05.578Z,6.75
2019-06-20T16:24:36.133Z,7.70
2019-06-20T16:27:25.163Z,8.58
2019-06-20T16:29:55.419Z,8.80
2019-06-20T16:32:25.941Z,10.28
2019-06-20T16:34:57.499Z,7.33
2019-06-20T16:37:28.009Z,8.00
2019-06-20T16:40:14.804Z,7.28
2019-06-20T16:42:45.023Z,8.28
2019-06-20T16:45:17.937Z,6.42
2019-06-20T16:47:49.988Z,6.90
2019-06-20T16:50:34.542Z,6.87
2019-06-20T16:53:05.124Z,7.33
2019-06-20T16:55:59.503Z,6.05
2019-06-20T16:58:29.794Z,6.28
2019-06-20T17:00:59.987Z,5.60
2019-06-20T17:03:41.096Z,6.42
2019-06-20T17:06:02.148Z,5.78
2019-06-20T17:08:37.296Z,7.03
2019-06-20T17:11:07.502Z,7.00
2019-06-20T17:13:38.024Z,6.15
2019-06-20T17:16:08.338Z,5.65
2019-06-20T17:18:43.017Z,6.28
2019-06-20T17:21:13.450Z,6.70
2019-06-20T17:23:44.618Z,6.15
2019-06-20T17:26:14.885Z,5.97
2019-06-20T17:28:51.864Z,6.42
2019-06-20T17:31:22.180Z,6.95
2019-06-20T17:33:59.728Z,6.67
2019-06-20T17:36:29.928Z,8.05
2019-06-20T17:39:01.144Z,7.80
2019-06-20T17:41:55.434Z,7.42
2019-06-20T17:44:27.362Z,8.75
2019-06-20T17:46:56.046Z,7.33
2019-06-20T17:49:32.056Z,7.75
2019-06-20T17:52:02.323Z,8.98
2019-06-20T17:54:37.974Z,9.60
2019-06-20T17:57:08.226Z,8.65
2019-06-20T17:59:43.656Z,6.60
2019-06-20T18:02:13.847Z,6.85
2019-06-20T18:04:44.777Z,7.37
2019-06-20T18:07:14.822Z,11.18
2019-06-20T18:09:45.109Z,9.45
2019-06-20T18:12:15.479Z,26.95
2019-06-20T18:14:49.966Z,18.90
2019-06-20T18:17:20.239Z,21.12
2019-06-20T18:20:02.771Z,13.10
2019-06-20T18:22:33.152Z,11.93
2019-06-20T18:25:04.401Z,17.77
2019-06-20T18:27:42.688Z,12.43
2019-06-20T18:30:15.257Z,14.15
2019-06-20T18:32:52.491Z,12.30
2019-06-20T18:35:22.689Z,11.60
2019-06-20T18:37:53.090Z,12.20
2019-06-20T18:40:23.834Z,10.50
2019-06-20T18:42:55.242Z,12.90
2019-06-20T18:45:25.424Z,16.70
2019-06-20T18:47:55.696Z,13.60
2019-06-20T18:50:25.960Z,12.75
2019-06-20T18:52:56.257Z,12.40
2019-06-20T18:56:07.816Z,11.18
2019-06-20T18:58:38.243Z,14.65
2019-06-20T19:01:12.398Z,14.35
2019-06-20T19:03:42.694Z,15.58
2019-06-20T19:06:13.024Z,18.98
2019-06-20T19:08:45.358Z,19.00
2019-06-20T19:11:16.012Z,19.48
2019-06-20T19:13:46.240Z,15.30
2019-06-20T19:16:16.685Z,15.65
2019-06-20T19:18:47.282Z,17.62
2019-06-20T19:21:19.676Z,14.00
2019-06-20T19:23:50.110Z,14.38
2019-06-20T19:26:28.019Z,11.88
2019-06-20T19:28:59.047Z,11.22
2019-06-20T19:31:31.347Z,12.55
2019-06-20T19:34:01.652Z,9.73
2019-06-20T19:36:42.369Z,10.50
2019-06-20T19:39:12.965Z,10.80
2019-06-20T19:41:43.206Z,10.00
2019-06-20T19:44:13.493Z,9.90
2019-06-20T19:46:44.007Z,11.53
2019-06-20T19:49:17.849Z,10.05
2019-06-20T19:51:48.208Z,11.35
2019-06-20T19:54:18.387Z,9.40
2019-06-20T19:56:48.663Z,10.85
2019-06-20T19:59:18.821Z,9.48
2019-06-20T20:01:49.151Z,9.95
2019-06-20T20:04:19.375Z,9.63
2019-06-20T20:06:49.610Z,10.35
2019-06-20T20:09:26.203Z,13.30
2019-06-20T20:11:56.424Z,11.75
2019-06-20T20:14:30.033Z,11.10
2019-06-20T20:17:00.232Z,11.60
2019-06-20T20:19:34.485Z,10.68
2019-06-20T20:22:06.639Z,10.72
2019-06-20T20:24:39.152Z,10.95
2019-06-20T20:27:09.604Z,13.15
2019-06-20T20:29:44.048Z,11.15
2019-06-20T20:32:14.464Z,12.20
2019-06-20T20:34:58.694Z,12.65
2019-06-20T20:37:29.141Z,12.47
2019-06-20T20:40:11.059Z,13.62
2019-06-20T20:42:41.327Z,11.78
2019-06-20T20:45:11.959Z,11.10
2019-06-20T20:47:42.659Z,10.13
2019-06-20T20:50:18.175Z,9.63
2019-06-20T20:52:50.791Z,10.55
2019-06-20T20:55:21.019Z,10.13
2019-06-20T20:57:56.137Z,8.93
2019-06-20T21:01:02.349Z,11.28
2019-06-20T21:03:32.788Z,9.35
2019-06-20T21:06:03.121Z,9.40
2019-06-20T21:08:41.351Z,9.85
2019-06-20T21:11:11.653Z,9.73
2019-06-20T21:13:42.884Z,10.72
2019-06-20T21:16:13.156Z,11.78
2019-06-20T21:18:44.400Z,14.07
2019-06-20T21:21:14.661Z,14.78
2019-06-20T21:23:48.286Z,14.83
2019-06-20T21:26:18.975Z,14.30
2019-06-20T21:28:53.227Z,13.38
2019-06-20T21:31:23.895Z,15.00
2019-06-20T21:33:54.706Z,14.00
2019-06-20T21:36:25.131Z,12.88
2019-06-20T21:38:56.597Z,13.03
2019-06-20T21:41:27.905Z,13.22
2019-06-20T21:43:58.289Z,12.05
2019-06-20T21:46:28.692Z,11.65
2019-06-20T21:48:59.392Z,15.63
2019-06-20T21:51:30.621Z,17.20
2019-06-20T21:54:01.271Z,17.92
2019-06-20T21:56:31.660Z,18.02
2019-06-20T21:59:01.938Z,26.97
2019-06-20T22:01:35.462Z,18.82
2019-06-20T22:04:06.011Z,13.35
2019-06-20T22:06:36.233Z,14.53
2019-06-20T22:09:09.162Z,13.90
2019-06-20T22:11:41.002Z,14.93
2019-06-20T22:14:11.304Z,14.10
2019-06-20T22:16:41.694Z,11.25
2019-06-20T22:19:11.874Z,13.58
2019-06-20T22:21:42.317Z,11.25
2019-06-20T22:24:13.589Z,10.38
2019-06-20T22:26:43.807Z,8.45
2019-06-20T22:29:15.160Z,9.08
2019-06-20T22:31:45.378Z,8.27
2019-06-20T22:34:15.584Z,7.70
2019-06-20T22:36:45.878Z,6.87
2019-06-20T22:39:16.070Z,8.58
2019-06-20T22:41:47.337Z,9.55
2019-06-20T22:44:17.518Z,11.38
2019-06-20T22:46:48.799Z,11.18
2019-06-20T22:49:18.985Z,11.83
2019-06-20T22:51:49.227Z,11.45
2019-06-20T22:54:19.491Z,11.50
2019-06-20T22:56:49.780Z,10.88
2019-06-20T22:59:22.336Z,10.72
2019-06-20T23:01:52.581Z,11.20
2019-06-20T23:04:22.810Z,11.57
2019-06-20T23:07:00.617Z,12.13
2019-06-20T23:09:31.835Z,11.53
2019-06-20T23:12:22.317Z,10.15
2019-06-20T23:14:55.820Z,10.82
2019-06-20T23:17:26.066Z,12.05
2019-06-20T23:19:56.218Z,14.35
2019-06-20T23:22:27.604Z,14.03
2019-06-20T23:24:57.836Z,14.47
2019-06-20T23:27:28.070Z,15.93
2019-06-20T23:29:58.297Z,16.87
2019-06-20T23:32:28.577Z,15.10
2019-06-20T23:34:58.756Z,14.15
2019-06-20T23:37:28.985Z,15.03
2019-06-20T23:39:59.261Z,16.52
2019-06-20T23:42:33.861Z,16.93
2019-06-20T23:45:05.099Z,18.57
2019-06-20T23:47:35.333Z,20.10
2019-06-20T23:50:09.394Z,19.50
2019-06-20T23:52:41.260Z,17.92
2019-06-20T23:55:11.737Z,20.23
2019-06-20T23:57:42.009Z,19.12
